createdAt,value
2019-03-29T00:00:34.262Z,12.07
2019-03-29T00:03:01.308Z,10.98
2019-03-29T00:05:28.682Z,12.13
2019-03-29T00:07:55.749Z,11.60
2019-03-29T00:10:23.099Z,12.10
2019-03-29T00:12:50.148Z,11.18
2019-03-29T00:15:17.490Z,12.07
2019-03-29T00:17:44.861Z,11.88
2019-03-29T00:20:11.885Z,10.75
2019-03-29T00:22:39.247Z,12.50
2019-03-29T00:25:07.090Z,10.95
2019-03-29T00:27:34.589Z,12.07
2019-03-29T00:30:01.926Z,12.15
2019-03-29T00:32:29.156Z,15.28
2019-03-29T00:34:56.188Z,11.33
2019-03-29T00:37:23.228Z,15.03
2019-03-29T00:39:50.259Z,14.25
2019-03-29T00:42:17.389Z,12.58
2019-03-29T00:44:44.419Z,12.25
2019-03-29T00:47:11.469Z,13.93
2019-03-29T00:49:38.505Z,12.00
2019-03-29T00:52:05.872Z,15.18
2019-03-29T00:54:32.917Z,15.15
2019-03-29T00:57:00.270Z,13.90
2019-03-29T00:59:27.323Z,18.12
2019-03-29T01:01:54.678Z,17.82
2019-03-29T01:04:21.730Z,18.05
2019-03-29T01:06:48.794Z,20.15
2019-03-29T01:09:15.827Z,16.20
2019-03-29T01:11:42.880Z,16.20
2019-03-29T01:14:10.222Z,17.85
2019-03-29T01:16:37.505Z,19.12
2019-03-29T01:19:04.557Z,20.70
2019-03-29T01:21:31.839Z,18.23
2019-03-29T01:23:58.890Z,16.85
2019-03-29T01:26:27.049Z,20.10
2019-03-29T01:28:54.384Z,19.80
2019-03-29T01:31:21.404Z,20.55
2019-03-29T01:33:48.450Z,18.32
2019-03-29T01:36:15.806Z,19.62
2019-03-29T01:38:42.856Z,19.65
2019-03-29T01:41:09.889Z,19.57
2019-03-29T01:43:36.955Z,21.07
2019-03-29T01:46:03.979Z,21.30
2019-03-29T01:48:31.029Z,19.48
2019-03-29T01:50:58.138Z,19.10
2019-03-29T01:53:25.362Z,20.25
2019-03-29T01:55:52.698Z,22.52
2019-03-29T01:58:19.830Z,22.02
2019-03-29T02:00:47.019Z,20.70
2019-03-29T02:03:14.388Z,24.25
2019-03-29T02:05:41.427Z,25.80
2019-03-29T02:08:08.482Z,24.35
2019-03-29T02:10:35.808Z,20.45
2019-03-29T02:13:02.845Z,23.85
2019-03-29T02:15:29.889Z,22.70
2019-03-29T02:17:57.273Z,21.82
2019-03-29T02:20:25.296Z,26.10
2019-03-29T02:22:52.332Z,24.60
2019-03-29T02:25:19.377Z,21.20
2019-03-29T02:27:46.684Z,21.15
2019-03-29T02:30:14.035Z,23.92
2019-03-29T02:32:41.077Z,23.52
2019-03-29T02:35:08.466Z,21.52
2019-03-29T02:37:35.562Z,23.10
2019-03-29T02:40:02.617Z,23.18
2019-03-29T02:42:29.907Z,23.05
2019-03-29T02:44:57.243Z,28.25
2019-03-29T02:47:24.533Z,23.77
2019-03-29T02:49:52.661Z,21.57
2019-03-29T02:52:19.697Z,22.90
2019-03-29T02:54:47.210Z,23.35
2019-03-29T02:57:14.537Z,23.32
2019-03-29T02:59:41.587Z,24.40
2019-03-29T03:02:09.960Z,27.22
2019-03-29T03:04:37.014Z,24.40
2019-03-29T03:07:19.478Z,26.95
2019-03-29T03:09:46.520Z,23.10
2019-03-29T03:12:13.560Z,25.37
2019-03-29T03:14:41.926Z,20.95
2019-03-29T03:17:09.040Z,27.42
2019-03-29T03:19:36.394Z,28.23
2019-03-29T03:22:03.462Z,28.62
2019-03-29T03:24:30.474Z,24.37
2019-03-29T03:26:57.874Z,27.22
2019-03-29T03:29:24.947Z,29.42
2019-03-29T03:31:52.260Z,36.65
2019-03-29T03:34:19.311Z,28.30
2019-03-29T03:36:46.650Z,29.87
2019-03-29T03:39:30.730Z,31.12
2019-03-29T03:41:43.028Z,26.00
2019-03-29T03:44:10.131Z,29.52
2019-03-29T03:46:37.297Z,28.95
2019-03-29T03:49:04.552Z,30.32
2019-03-29T03:51:31.678Z,35.88
2019-03-29T03:53:58.789Z,27.58
2019-03-29T03:56:25.853Z,35.28
2019-03-29T03:58:53.359Z,34.20
2019-03-29T04:01:20.755Z,30.50
2019-03-29T04:03:47.863Z,37.95
2019-03-29T04:06:15.258Z,37.17
2019-03-29T04:08:42.275Z,42.38
2019-03-29T04:13:47.575Z,34.03
2019-03-29T04:16:14.985Z,31.77
2019-03-29T04:18:42.031Z,34.05
2019-03-29T04:21:09.081Z,38.70
2019-03-29T04:23:36.119Z,40.12
2019-03-29T04:26:03.484Z,37.83
2019-03-29T04:28:30.531Z,38.83
2019-03-29T04:30:57.594Z,37.63
2019-03-29T04:33:24.645Z,37.75
2019-03-29T04:35:51.751Z,37.30
2019-03-29T04:38:19.152Z,36.70
2019-03-29T04:40:46.463Z,48.10
2019-03-29T04:43:13.496Z,49.13
2019-03-29T04:45:40.569Z,50.85
2019-03-29T04:48:08.159Z,43.17
2019-03-29T04:50:35.254Z,40.33
2019-03-29T04:53:02.328Z,53.70
2019-03-29T04:55:29.715Z,50.67
2019-03-29T04:57:56.759Z,48.38
2019-03-29T05:00:23.813Z,53.58
2019-03-29T05:02:50.855Z,42.78
2019-03-29T05:05:17.913Z,43.33
2019-03-29T05:07:44.951Z,40.88
2019-03-29T05:10:20.924Z,41.63
2019-03-29T05:12:41.388Z,36.73
2019-03-29T05:15:08.454Z,34.20
2019-03-29T05:17:35.786Z,44.27
2019-03-29T05:20:03.148Z,47.80
2019-03-29T05:22:30.441Z,35.83
2019-03-29T05:24:57.476Z,39.38
2019-03-29T05:27:24.530Z,32.53
2019-03-29T05:29:51.643Z,34.58
2019-03-29T05:32:18.690Z,34.83
2019-03-29T05:34:45.730Z,35.23
2019-03-29T05:37:12.786Z,37.73
2019-03-29T05:39:40.160Z,35.92
2019-03-29T05:42:07.515Z,33.48
2019-03-29T05:44:34.560Z,36.60
2019-03-29T05:47:01.686Z,36.68
2019-03-29T05:49:28.731Z,33.25
2019-03-29T05:51:55.782Z,34.48
2019-03-29T05:54:22.821Z,35.78
2019-03-29T05:56:50.193Z,32.80
2019-03-29T05:59:17.230Z,35.65
2019-03-29T06:01:44.291Z,34.13
2019-03-29T06:04:11.329Z,33.23
2019-03-29T06:06:38.691Z,30.90
2019-03-29T06:09:05.726Z,34.05
2019-03-29T06:11:32.781Z,33.50
2019-03-29T06:13:59.817Z,33.92
2019-03-29T06:16:38.436Z,32.60
2019-03-29T06:18:55.895Z,30.30
2019-03-29T06:21:23.247Z,30.95
2019-03-29T06:23:51.352Z,24.67
2019-03-29T06:26:19.480Z,29.25
2019-03-29T06:28:46.513Z,30.23
2019-03-29T06:31:14.538Z,26.02
2019-03-29T06:33:44.399Z,31.30
2019-03-29T06:36:10.413Z,30.48
2019-03-29T06:38:37.793Z,26.10
2019-03-29T06:41:04.843Z,34.20
2019-03-29T06:43:31.879Z,28.62
2019-03-29T06:45:58.917Z,27.82
2019-03-29T06:48:25.971Z,29.50
2019-03-29T06:50:53.186Z,28.50
2019-03-29T06:53:20.444Z,26.23
2019-03-29T06:55:50.699Z,27.20
2019-03-29T06:58:18.065Z,27.48
2019-03-29T07:00:46.674Z,29.12
2019-03-29T07:03:13.935Z,24.80
2019-03-29T07:05:40.983Z,24.57
2019-03-29T07:08:08.035Z,25.32
2019-03-29T07:10:35.077Z,22.95
2019-03-29T07:13:02.418Z,25.52
2019-03-29T07:15:29.462Z,22.35
2019-03-29T07:17:56.514Z,25.30
2019-03-29T07:20:23.551Z,22.45
2019-03-29T07:22:50.899Z,21.60
2019-03-29T07:25:17.940Z,21.68
2019-03-29T07:27:51.891Z,21.97
2019-03-29T07:30:14.092Z,23.32
2019-03-29T07:32:41.158Z,20.95
2019-03-29T07:35:08.204Z,20.55
2019-03-29T07:37:36.326Z,21.27
2019-03-29T07:40:03.380Z,22.35
2019-03-29T07:42:30.437Z,23.65
2019-03-29T07:44:58.547Z,22.17
2019-03-29T07:47:25.883Z,20.72
2019-03-29T07:49:52.995Z,20.72
2019-03-29T07:52:20.047Z,21.40
2019-03-29T07:54:47.094Z,19.87
2019-03-29T07:57:14.147Z,20.82
2019-03-29T07:59:41.190Z,20.40
2019-03-29T08:02:08.249Z,20.97
2019-03-29T08:04:35.294Z,20.08
2019-03-29T08:07:02.351Z,19.10
2019-03-29T08:09:29.387Z,19.77
2019-03-29T08:11:56.774Z,20.25
2019-03-29T08:14:23.820Z,20.25
2019-03-29T08:16:50.874Z,19.32
2019-03-29T08:19:17.921Z,17.60
2019-03-29T08:21:45.271Z,18.77
2019-03-29T08:24:12.634Z,18.40
2019-03-29T08:26:40.014Z,19.73
2019-03-29T08:29:07.356Z,17.70
2019-03-29T08:31:34.393Z,18.52
2019-03-29T08:34:01.458Z,18.00
2019-03-29T08:36:28.668Z,16.95
2019-03-29T08:38:56.059Z,16.48
2019-03-29T08:41:23.398Z,13.20
2019-03-29T08:43:50.450Z,15.38
2019-03-29T08:46:18.566Z,13.72
2019-03-29T08:48:45.976Z,11.57
2019-03-29T08:51:13.022Z,14.75
2019-03-29T08:53:40.090Z,13.20
2019-03-29T08:56:07.136Z,12.60
2019-03-29T08:58:34.475Z,11.45
2019-03-29T09:01:01.521Z,12.35
2019-03-29T09:03:28.588Z,11.83
2019-03-29T09:05:55.636Z,11.57
2019-03-29T09:08:23.763Z,11.63
2019-03-29T09:10:50.807Z,10.95
2019-03-29T09:13:18.204Z,12.78
2019-03-29T09:15:45.573Z,11.35
2019-03-29T09:18:12.626Z,11.90
2019-03-29T09:20:39.951Z,12.18
2019-03-29T09:23:10.323Z,11.50
2019-03-29T09:25:36.050Z,11.50
2019-03-29T09:28:03.473Z,11.75
2019-03-29T09:30:30.807Z,12.03
2019-03-29T09:32:57.862Z,12.15
2019-03-29T09:35:25.211Z,12.45
2019-03-29T09:37:52.267Z,13.55
2019-03-29T09:40:19.312Z,11.95
2019-03-29T09:42:46.365Z,11.75
2019-03-29T09:45:13.409Z,13.10
2019-03-29T09:47:41.026Z,11.63
2019-03-29T09:50:10.322Z,12.13
2019-03-29T09:52:37.276Z,11.50
2019-03-29T09:55:04.327Z,11.15
2019-03-29T09:57:37.376Z,11.22
2019-03-29T10:00:00.534Z,11.28
2019-03-29T10:02:27.591Z,11.95
2019-03-29T10:04:54.637Z,11.35
2019-03-29T10:07:21.680Z,13.18
2019-03-29T10:09:48.817Z,12.18
2019-03-29T10:12:16.933Z,12.85
2019-03-29T10:14:43.983Z,13.55
2019-03-29T10:17:11.379Z,12.18
2019-03-29T10:19:38.436Z,12.93
2019-03-29T10:22:05.477Z,11.63
2019-03-29T10:24:32.533Z,12.43
2019-03-29T10:26:59.580Z,13.53
2019-03-29T10:29:26.632Z,11.93
2019-03-29T10:31:53.972Z,11.43
2019-03-29T10:34:21.321Z,11.05
2019-03-29T10:36:48.606Z,10.30
2019-03-29T10:39:15.658Z,9.70
2019-03-29T10:41:42.693Z,13.68
2019-03-29T10:44:09.747Z,10.93
2019-03-29T10:46:37.855Z,11.20
2019-03-29T10:49:04.915Z,10.93
2019-03-29T10:51:32.298Z,10.72
2019-03-29T10:53:59.669Z,11.15
2019-03-29T10:56:33.871Z,9.73
2019-03-29T10:58:56.424Z,10.90
2019-03-29T11:01:24.966Z,10.40
2019-03-29T11:03:52.044Z,11.05
2019-03-29T11:06:20.049Z,10.90
2019-03-29T11:08:47.186Z,11.78
2019-03-29T11:11:14.231Z,11.38
2019-03-29T11:13:41.449Z,11.75
2019-03-29T11:16:08.509Z,10.50
2019-03-29T11:18:35.868Z,12.43
2019-03-29T11:21:02.919Z,10.60
2019-03-29T11:23:30.288Z,11.00
2019-03-29T11:25:57.341Z,11.25
2019-03-29T11:28:24.671Z,12.10
2019-03-29T11:30:51.730Z,11.75
2019-03-29T11:33:19.092Z,11.38
2019-03-29T11:35:46.147Z,11.88
2019-03-29T11:38:13.192Z,10.98
2019-03-29T11:40:40.253Z,10.78
2019-03-29T11:43:07.284Z,10.25
2019-03-29T11:45:34.415Z,10.23
2019-03-29T11:48:08.130Z,9.68
2019-03-29T11:50:30.481Z,9.85
2019-03-29T11:52:57.523Z,10.65
2019-03-29T11:55:24.576Z,10.72
2019-03-29T11:57:51.691Z,10.10
2019-03-29T12:00:19.057Z,9.53
2019-03-29T12:02:46.162Z,10.53
2019-03-29T12:05:13.221Z,10.75
2019-03-29T12:07:40.253Z,10.30
2019-03-29T12:10:07.307Z,9.95
2019-03-29T12:12:34.341Z,10.53
2019-03-29T12:15:01.397Z,10.38
2019-03-29T12:17:30.150Z,9.75
2019-03-29T12:19:57.201Z,9.08
2019-03-29T12:22:24.540Z,9.70
2019-03-29T12:24:51.893Z,9.38
2019-03-29T12:27:18.939Z,9.20
2019-03-29T12:29:46.296Z,9.40
2019-03-29T12:32:13.334Z,9.73
2019-03-29T12:34:40.379Z,8.33
2019-03-29T12:37:07.766Z,8.45
2019-03-29T12:39:35.101Z,8.70
2019-03-29T12:42:04.113Z,9.30
2019-03-29T12:44:31.149Z,9.80
2019-03-29T12:46:58.197Z,9.53
2019-03-29T12:49:26.569Z,9.43
2019-03-29T12:51:53.619Z,9.78
2019-03-29T12:54:20.975Z,8.53
2019-03-29T12:56:48.345Z,9.20
2019-03-29T12:59:15.641Z,9.88
2019-03-29T13:01:43.058Z,10.28
2019-03-29T13:04:10.099Z,9.73
2019-03-29T13:06:37.462Z,10.10
2019-03-29T13:09:04.496Z,9.50
2019-03-29T13:11:32.050Z,8.98
2019-03-29T13:14:10.082Z,9.93
2019-03-29T13:16:28.799Z,9.50
2019-03-29T13:18:55.840Z,8.48
2019-03-29T13:21:23.218Z,10.85
2019-03-29T13:23:50.252Z,9.93
2019-03-29T13:26:17.300Z,9.95
2019-03-29T13:28:44.330Z,10.08
2019-03-29T13:31:11.391Z,11.25
2019-03-29T13:33:38.433Z,11.08
2019-03-29T13:36:05.486Z,10.70
2019-03-29T13:38:32.532Z,10.58
2019-03-29T13:40:59.905Z,11.33
2019-03-29T13:43:26.942Z,12.45
2019-03-29T13:45:54.033Z,13.30
2019-03-29T13:48:21.052Z,13.05
2019-03-29T13:50:48.103Z,14.05
2019-03-29T13:53:15.141Z,13.35
2019-03-29T13:55:42.203Z,13.98
2019-03-29T13:58:09.251Z,11.95
2019-03-29T14:00:36.550Z,12.98
2019-03-29T14:03:03.591Z,12.68
2019-03-29T14:05:30.639Z,12.25
2019-03-29T14:07:57.749Z,13.58
2019-03-29T14:10:24.810Z,13.22
2019-03-29T14:12:51.850Z,12.33
2019-03-29T14:15:19.186Z,12.80
2019-03-29T14:17:46.244Z,13.32
2019-03-29T14:20:13.295Z,13.83
2019-03-29T14:22:40.656Z,16.52
2019-03-29T14:25:07.697Z,14.50
2019-03-29T14:27:35.044Z,15.95
2019-03-29T14:30:04.738Z,15.65
2019-03-29T14:32:31.496Z,12.43
2019-03-29T14:34:58.975Z,15.53
2019-03-29T14:37:26.027Z,14.85
2019-03-29T14:39:54.480Z,15.72
2019-03-29T14:42:21.535Z,13.58
2019-03-29T14:44:52.798Z,12.65
2019-03-29T14:47:17.574Z,12.88
2019-03-29T14:49:44.615Z,14.20
2019-03-29T14:52:11.670Z,14.05
2019-03-29T14:54:38.711Z,13.88
2019-03-29T14:57:06.089Z,15.08
2019-03-29T14:59:33.423Z,12.50
2019-03-29T15:02:00.486Z,12.55
2019-03-29T15:04:27.518Z,13.13
2019-03-29T15:06:54.890Z,12.58
2019-03-29T15:09:22.234Z,11.97
2019-03-29T15:11:49.602Z,34.98
2019-03-29T15:14:16.649Z,68.05
2019-03-29T15:16:44.006Z,13.88
2019-03-29T15:19:11.051Z,46.15
2019-03-29T15:21:42.725Z,30.82
2019-03-29T15:24:09.698Z,42.98
2019-03-29T15:26:36.754Z,15.23
2019-03-29T15:29:03.793Z,13.03
2019-03-29T15:31:30.847Z,12.10
2019-03-29T15:33:57.895Z,13.25
2019-03-29T15:36:24.945Z,14.73
2019-03-29T15:38:51.985Z,14.93
2019-03-29T15:41:19.062Z,14.65
2019-03-29T15:43:46.447Z,22.60
2019-03-29T15:46:13.488Z,17.32
2019-03-29T15:48:40.548Z,13.35
2019-03-29T15:51:07.596Z,16.25
2019-03-29T15:53:34.648Z,15.32
2019-03-29T15:56:01.816Z,49.60
2019-03-29T15:58:28.850Z,14.28
2019-03-29T16:00:55.900Z,14.68
2019-03-29T16:03:23.030Z,14.73
2019-03-29T16:05:50.077Z,14.95
2019-03-29T16:08:18.205Z,15.83
2019-03-29T16:10:45.243Z,14.15
2019-03-29T16:13:12.299Z,14.70
2019-03-29T16:15:39.609Z,13.78
2019-03-29T16:18:06.943Z,15.48
2019-03-29T16:20:33.985Z,15.93
2019-03-29T16:23:01.357Z,15.60
2019-03-29T16:25:28.387Z,15.65
2019-03-29T16:27:55.448Z,15.95
2019-03-29T16:30:22.492Z,15.75
2019-03-29T16:32:49.968Z,14.98
2019-03-29T16:35:17.021Z,20.05
2019-03-29T16:37:56.568Z,15.15
2019-03-29T16:40:13.097Z,13.80
2019-03-29T16:42:40.152Z,16.37
2019-03-29T16:45:07.191Z,15.58
2019-03-29T16:47:35.352Z,15.05
2019-03-29T16:50:02.358Z,15.23
2019-03-29T16:52:29.690Z,12.60
2019-03-29T16:54:57.064Z,14.25
2019-03-29T16:57:24.699Z,13.53
2019-03-29T16:59:52.212Z,12.43
2019-03-29T17:02:19.328Z,12.90
2019-03-29T17:04:46.454Z,14.93
2019-03-29T17:07:13.742Z,14.87
2019-03-29T17:09:40.979Z,12.45
2019-03-29T17:12:08.183Z,18.05
2019-03-29T17:14:35.245Z,14.00
2019-03-29T17:17:02.284Z,14.18
2019-03-29T17:19:29.346Z,13.40
2019-03-29T17:21:56.394Z,13.70
2019-03-29T17:24:23.735Z,14.73
2019-03-29T17:26:54.111Z,12.20
2019-03-29T17:29:20.040Z,15.08
2019-03-29T17:31:47.116Z,16.45
2019-03-29T17:34:14.178Z,14.63
2019-03-29T17:36:41.237Z,15.75
2019-03-29T17:39:08.290Z,13.90
2019-03-29T17:41:35.603Z,15.88
2019-03-29T17:44:02.662Z,16.67
2019-03-29T17:46:29.704Z,13.05
2019-03-29T17:48:56.764Z,15.00
2019-03-29T17:51:23.811Z,14.87
2019-03-29T17:53:50.874Z,14.73
2019-03-29T17:56:18.989Z,14.85
2019-03-29T17:58:46.052Z,16.48
2019-03-29T18:01:13.101Z,18.98
2019-03-29T18:03:40.161Z,16.65
2019-03-29T18:06:07.214Z,14.10
2019-03-29T18:08:34.280Z,14.30
2019-03-29T18:11:01.328Z,15.40
2019-03-29T18:13:28.376Z,13.38
2019-03-29T18:15:55.465Z,15.98
2019-03-29T18:18:22.515Z,16.57
2019-03-29T18:20:49.887Z,18.70
2019-03-29T18:23:17.243Z,15.83
2019-03-29T18:25:44.311Z,14.87
2019-03-29T18:28:11.358Z,16.57
2019-03-29T18:30:38.426Z,17.40
2019-03-29T18:33:05.482Z,16.80
2019-03-29T18:35:32.892Z,15.48
2019-03-29T18:38:00.349Z,18.77
2019-03-29T18:40:27.578Z,15.75
2019-03-29T18:42:56.235Z,15.93
2019-03-29T18:45:23.289Z,14.55
2019-03-29T18:47:50.343Z,17.12
2019-03-29T18:50:17.394Z,15.90
2019-03-29T18:52:44.440Z,19.75
2019-03-29T18:55:14.748Z,19.32
2019-03-29T18:57:41.798Z,17.17
2019-03-29T19:00:08.877Z,16.15
2019-03-29T19:02:45.196Z,16.80
2019-03-29T19:05:12.254Z,16.40
2019-03-29T19:07:40.419Z,18.35
2019-03-29T19:10:12.497Z,19.15
2019-03-29T19:12:46.492Z,18.30
2019-03-29T19:17:57.983Z,14.38
2019-03-29T19:20:27.682Z,17.82
2019-03-29T19:22:55.796Z,17.45
2019-03-29T19:25:23.977Z,16.32
2019-03-29T19:27:52.233Z,15.83
2019-03-29T19:30:19.504Z,19.07
2019-03-29T19:32:49.769Z,18.90
2019-03-29T19:35:16.981Z,18.07
2019-03-29T19:37:52.515Z,18.62
2019-03-29T19:40:20.797Z,18.15
2019-03-29T19:42:48.132Z,22.40
2019-03-29T19:50:32.959Z,18.27
2019-03-29T19:53:06.027Z,17.95
2019-03-29T19:55:35.245Z,21.00
2019-03-29T19:58:04.477Z,19.37
2019-03-29T20:00:31.716Z,19.40
2019-03-29T20:03:07.750Z,19.32
2019-03-29T20:05:35.930Z,21.95
2019-03-29T20:08:04.187Z,19.25
2019-03-29T20:10:32.486Z,21.25
2019-03-29T20:13:12.718Z,20.17
2019-03-29T20:15:39.990Z,17.92
2019-03-29T20:18:07.042Z,18.37
2019-03-29T20:23:28.377Z,20.97
2019-03-29T20:25:55.427Z,18.75
2019-03-29T20:28:23.679Z,17.65
2019-03-29T20:30:55.661Z,21.07
2019-03-29T20:33:23.920Z,18.40
2019-03-29T20:38:26.841Z,19.35
2019-03-29T20:43:26.870Z,20.77
2019-03-29T20:45:55.049Z,21.10
2019-03-29T20:48:39.490Z,20.50
2019-03-29T20:51:12.500Z,17.57
2019-03-29T20:53:43.744Z,19.65
2019-03-29T20:56:13.148Z,23.00
2019-03-29T20:58:42.319Z,19.65
2019-03-29T21:01:09.592Z,18.12
2019-03-29T21:03:52.263Z,17.10
2019-03-29T21:06:19.459Z,17.82
2019-03-29T21:09:00.008Z,19.05
2019-03-29T21:13:56.211Z,18.55
2019-03-29T21:16:24.239Z,19.75
2019-03-29T21:18:51.280Z,21.90
2019-03-29T21:21:19.460Z,22.73
2019-03-29T21:23:48.350Z,22.48
2019-03-29T21:28:52.771Z,19.92
2019-03-29T21:33:59.884Z,20.88
2019-03-29T21:36:31.959Z,21.65
2019-03-29T21:39:05.951Z,19.30
2019-03-29T21:41:35.369Z,19.27
2019-03-29T21:44:02.608Z,21.73
2019-03-29T21:46:29.879Z,21.23
2019-03-29T21:49:00.178Z,20.40
2019-03-29T21:54:04.386Z,19.35
2019-03-29T22:01:50.457Z,19.07
2019-03-29T22:04:24.552Z,19.45
2019-03-29T22:06:56.234Z,18.10
2019-03-29T22:09:36.902Z,22.87
2019-03-29T22:11:56.470Z,20.30
2019-03-29T22:14:24.906Z,22.13
2019-03-29T22:16:54.150Z,19.90
2019-03-29T22:19:21.187Z,20.43
2019-03-29T22:21:48.457Z,19.07
2019-03-29T22:24:24.796Z,20.52
2019-03-29T22:26:52.990Z,22.27
2019-03-29T22:29:24.600Z,26.90
2019-03-29T22:31:57.121Z,21.20
2019-03-29T22:34:25.658Z,21.48
2019-03-29T22:39:25.125Z,25.85
2019-03-29T22:44:35.507Z,21.60
2019-03-29T22:47:05.929Z,20.62
2019-03-29T22:49:40.236Z,27.02
2019-03-29T22:52:09.450Z,21.48
2019-03-29T22:54:44.985Z,23.73
2019-03-29T22:57:12.048Z,20.85
2019-03-29T22:59:45.022Z,22.00
2019-03-29T23:04:59.609Z,20.23
2019-03-29T23:07:26.862Z,21.30
2019-03-29T23:13:01.664Z,23.12
2019-03-29T23:15:29.872Z,23.45
2019-03-29T23:20:47.507Z,23.12
2019-03-29T23:23:15.969Z,23.50
2019-03-29T23:25:55.437Z,23.70
2019-03-29T23:28:28.141Z,23.85
2019-03-29T23:33:48.237Z,27.05
2019-03-29T23:36:15.473Z,25.90
2019-03-29T23:38:45.820Z,30.00
2019-03-29T23:41:13.053Z,26.00
2019-03-29T23:46:20.984Z,25.85
2019-03-29T23:51:27.254Z,25.25
2019-03-29T23:53:55.448Z,24.63
2019-03-29T23:56:22.809Z,26.68
2019-03-29T23:58:50.979Z,27.15
